Lulu Pass Weather Station

This weather station provides temperature, relative humidity (RH), wind speed, gust or max wind speed, and wind direction at 10014ft near Lulu Pass at the head of Fisher Creek. This data can be used with temperature and precipitation data from the Fisher Creek SNOTEL site.

This weather station was purchased by the Friends of the Avalanche Center.

If the data has not been updated recently you can view it directly on datagarrison.com

Elevation
10014ft
Jump to table bottom
Date Time Temperature
deg F
RH, % Wind Speed Wind Gust Wind Direction
11/26/21 16:00 18.4 82 13 30 SW - 218
11/26/21 15:00 20.3 73 10 23 W - 251
11/26/21 14:00 20.8 54 12 27 SW - 227
11/26/21 13:00 21.6 51 10 24 SW - 241
11/26/21 12:00 21.6 52 11 25 SW - 229
11/26/21 11:00 20.7 54 10 24 SW - 241
11/26/21 10:00 20.9 57 13 37 SW - 223
11/26/21 09:00 18.0 55 12 28 SW - 230
11/26/21 08:00 17.7 58 10 34 SW - 244
11/26/21 07:00 18.4 60 10 24 SW - 227
11/26/21 06:00 17.1 65 10 24 SW - 244
11/26/21 05:00 15.6 78 11 22 W - 268
11/26/21 04:00 15.4 91 11 20 W - 288
11/26/21 03:00 13.6 92 15 25 NW - 323
11/26/21 02:00 13.4 92 14 23 NW - 323
11/26/21 01:00 13.4 93 9 18 NW - 314
11/26/21 00:00 14.8 93 15 27 S - 199
11/25/21 23:00 13.2 93 10 26 S - 197
11/25/21 22:00 12.3 93 12 26 S - 184
11/25/21 21:00 11.7 92 5 18 S - 202
11/25/21 20:00 11.3 92 6 13 SW - 215
11/25/21 19:00 11.5 92 5 14 SW - 246
11/25/21 18:00 12.1 92 8 18 SW - 209
11/25/21 17:00 13.8 93 5 18 W - 257
11/25/21 16:00 14.2 93 12 18 NW - 306
11/25/21 15:00 14.8 93 10 16 W - 291
11/25/21 14:00 16.0 92 6 16 SW - 243
11/25/21 13:00 12.6 91 6 17 SW - 216
11/25/21 12:00 15.9 92 4 9 W - 267
11/25/21 11:00 11.7 91 9 14 W - 292
11/25/21 10:00 9.3 91 14 21 NW - 312
11/25/21 09:00 8.4 91 16 23 NW - 305
11/25/21 08:00 8.6 90 17 23 NW - 307
11/25/21 07:00 8.2 90 10 19 W - 292
11/25/21 06:00 8.3 91 12 24 W - 288
11/25/21 05:00 8.3 91 10 21 W - 285
11/25/21 04:00 8.3 90 11 18 NW - 295
11/25/21 03:00 8.3 90 9 17 W - 284
11/25/21 02:00 7.9 90 8 14 W - 284
11/25/21 01:00 7.5 90 8 16 W - 279
11/25/21 00:00 7.2 90 11 17 W - 292
11/24/21 23:00 7.2 90 10 15 W - 285
11/24/21 22:00 6.9 90 10 16 NW - 293
11/24/21 21:00 6.6 90 8 14 NW - 296
11/24/21 20:00 6.8 90 10 22 W - 292
11/24/21 19:00 7.3 90 13 22 W - 289
11/24/21 18:00 8.0 91 14 24 W - 285
11/24/21 17:00 8.2 91 14 27 W - 282
11/24/21 16:00 10.6 92 17 33 W - 286
11/24/21 15:00 9.9 91 16 32 W - 281